Time;durP1;ratioP1;P1;durP2;ratioP2;P2;SDS_P1;SDS_P2;PMS_P1;PMS_P2;Temp;Humidity;BMP_temperature;BMP_pressure;BME280_temperature;BME280_humidity;BME280_pressure;Samples;Min_cycle;Max_cycle;Signal;HPM_P1;HPM_P2
2023/09/13 03:02:20;;;;;;;7.70;4.72;;;21.60;92.90;;;;;;5060864;28;20504;-85
2023/09/13 03:04:52;;;;;;;15.57;5.57;;;21.60;93.00;;;;;;5045542;28;20036;-85
2023/09/13 03:07:21;;;;;;;8.68;5.35;;;21.60;92.90;;;;;;5062221;28;20035;-86
2023/09/13 03:09:52;;;;;;;9.55;5.30;;;21.60;92.90;;;;;;5046473;28;20485;-86
2023/09/13 03:12:18;;;;;;;8.18;5.00;;;21.60;92.90;;;;;;5062554;28;20032;-86
2023/09/13 03:14:43;;;;;;;11.40;5.43;;;21.60;92.90;;;;;;5062334;28;20385;-86
2023/09/13 03:17:11;;;;;;;16.85;5.22;;;21.60;93.00;;;;;;5046260;28;20090;-85
2023/09/13 03:19:37;;;;;;;9.88;5.55;;;20.90;92.70;;;;;;5044906;28;20043;-85
2023/09/13 03:22:03;;;;;;;8.45;5.10;;;21.60;92.90;;;;;;5052619;28;20381;-86
2023/09/13 03:24:30;;;;;;;8.93;5.32;;;21.60;92.90;;;;;;5064806;28;20440;-86
2023/09/13 03:26:56;;;;;;;9.30;5.40;;;21.60;92.90;;;;;;5047890;28;20032;-85
2023/09/13 03:29:21;;;;;;;8.18;5.03;;;21.60;93.00;;;;;;5062366;28;20013;-86
2023/09/13 03:31:47;;;;;;;7.35;4.60;;;21.60;93.00;;;;;;5044971;28;20093;-87
2023/09/13 03:34:13;;;;;;;6.47;4.63;;;21.60;93.00;;;;;;5047586;28;20084;-86
2023/09/13 03:36:39;;;;;;;6.60;4.80;;;21.60;93.00;;;;;;5045347;28;20055;-86
2023/09/13 03:39:05;;;;;;;7.90;5.25;;;21.60;93.00;;;;;;5048263;28;20027;-86
2023/09/13 03:41:31;;;;;;;9.55;4.82;;;21.60;93.00;;;;;;5063025;28;20107;-86
2023/09/13 03:43:56;;;;;;;10.10;5.20;;;21.60;93.00;;;;;;5045498;28;20021;-86
2023/09/13 03:46:22;;;;;;;9.50;5.28;;;21.60;93.00;;;;;;5063580;28;20031;-86
2023/09/13 03:48:47;;;;;;;10.30;5.28;;;21.60;93.30;;;;;;5061971;28;20027;-86
2023/09/13 03:51:13;;;;;;;8.40;5.03;;;21.60;93.00;;;;;;5061376;28;20017;-86
2023/09/13 03:53:39;;;;;;;7.20;4.97;;;21.60;93.00;;;;;;5046172;28;20032;-85
2023/09/13 03:56:05;;;;;;;6.65;4.70;;;21.60;93.00;;;;;;5063050;28;20021;-85
2023/09/13 03:58:34;;;;;;;11.13;4.57;;;21.60;93.00;;;;;;5063186;28;20052;-85
2023/09/13 04:01:00;;;;;;;5.45;4.68;;;21.60;93.00;;;;;;5046724;28;20380;-85
2023/09/13 04:03:26;;;;;;;6.60;5.18;;;21.60;93.00;;;;;;5052401;28;20040;-85
2023/09/13 04:05:52;;;;;;;7.25;4.95;;;21.60;93.00;;;;;;5023806;28;20032;-86
2023/09/13 04:08:18;;;;;;;8.48;5.03;;;21.60;93.00;;;;;;5044564;28;20043;-85
2023/09/13 04:10:44;;;;;;;7.88;5.15;;;21.50;93.00;;;;;;5043018;28;20508;-86
2023/09/13 04:13:09;;;;;;;14.00;5.50;;;21.60;93.00;;;;;;5026029;28;20021;-86
2023/09/13 04:15:35;;;;;;;10.48;4.82;;;21.60;93.00;;;;;;5023527;28;20026;-86
2023/09/13 04:18:01;;;;;;;7.43;4.88;;;21.60;93.00;;;;;;5025188;28;20028;-85
2023/09/13 04:20:26;;;;;;;11.23;4.40;;;21.60;93.00;;;;;;5039151;28;20024;-85
2023/09/13 04:22:52;;;;;;;6.57;4.63;;;21.50;93.00;;;;;;5044240;28;20096;-86
2023/09/13 04:25:18;;;;;;;7.93;5.05;;;21.50;93.00;;;;;;5024623;28;20027;-85
2023/09/13 04:27:45;;;;;;;7.43;4.90;;;21.50;93.00;;;;;;5041564;28;20032;-85
2023/09/13 04:30:11;;;;;;;10.73;4.40;;;21.60;93.00;;;;;;5043009;28;20555;-85
2023/09/13 04:32:38;;;;;;;9.40;4.97;;;21.60;93.00;;;;;;5024174;28;20017;-86
2023/09/13 04:35:04;;;;;;;6.45;4.40;;;21.50;93.00;;;;;;5030460;28;20029;-86
2023/09/13 04:37:30;;;;;;;8.18;4.60;;;21.60;93.00;;;;;;5040178;28;20505;-85
2023/09/13 04:39:56;;;;;;;8.07;4.00;;;21.50;93.00;;;;;;5041944;28;20541;-86
2023/09/13 04:42:22;;;;;;;8.30;4.40;;;22.00;93.10;;;;;;5025597;28;20017;-85
2023/09/13 04:44:48;;;;;;;8.35;4.10;;;21.50;93.00;;;;;;5023485;28;20509;-85
2023/09/13 04:47:14;;;;;;;7.95;4.18;;;21.50;93.00;;;;;;5028747;28;20033;-85
2023/09/13 04:49:39;;;;;;;12.10;4.75;;;21.50;93.00;;;;;;5043220;28;20091;-86
2023/09/13 04:52:07;;;;;;;7.45;4.90;;;21.50;92.90;;;;;;5021734;28;20021;-85
2023/09/13 04:54:34;;;;;;;5.57;4.10;;;21.50;92.90;;;;;;5024244;28;20037;-85
2023/09/13 04:57:00;;;;;;;8.35;4.47;;;21.50;93.00;;;;;;5024755;28;20033;-85
2023/09/13 04:59:42;;;;;;;12.98;4.28;;;21.50;92.90;;;;;;5020330;28;20485;-85
2023/09/13 05:02:10;;;;;;;11.88;4.50;;;21.60;93.00;;;;;;5022583;28;20025;-85
2023/09/13 05:04:35;;;;;;;7.57;4.32;;;21.50;92.90;;;;;;5058172;28;20072;-85
2023/09/13 05:07:01;;;;;;;6.00;4.28;;;21.50;92.90;;;;;;5058728;28;20104;-85
2023/09/13 05:09:27;;;;;;;8.38;5.13;;;21.50;92.90;;;;;;5049259;28;20055;-85
2023/09/13 05:11:53;;;;;;;10.48;4.63;;;21.90;93.10;;;;;;5060908;28;20598;-86
2023/09/13 05:14:18;;;;;;;9.18;4.60;;;21.50;92.90;;;;;;5061966;28;20021;-84
2023/09/13 05:16:44;;;;;;;9.63;4.90;;;21.50;92.90;;;;;;5061420;28;20016;-85
2023/09/13 05:19:10;;;;;;;10.90;4.38;;;21.50;92.90;;;;;;5060975;28;20099;-85
2023/09/13 05:21:35;;;;;;;6.03;4.22;;;21.50;92.90;;;;;;5048301;28;20056;-85
2023/09/13 05:24:02;;;;;;;7.32;4.50;;;21.50;92.90;;;;;;5045808;28;20064;-85
2023/09/13 05:26:28;;;;;;;7.03;4.18;;;21.50;92.90;;;;;;5059518;28;20024;-85
2023/09/13 05:28:53;;;;;;;11.82;4.22;;;21.50;92.90;;;;;;5042443;28;20024;-85
2023/09/13 05:31:19;;;;;;;8.00;4.50;;;21.50;92.90;;;;;;5041758;28;20048;-85
2023/09/13 05:33:45;;;;;;;10.68;4.18;;;21.50;92.90;;;;;;5046056;28;20086;-86
2023/09/13 05:36:15;;;;;;;6.18;4.65;;;21.50;92.90;;;;;;5061551;28;20036;-85
2023/09/13 05:38:43;;;;;;;10.10;4.35;;;21.60;92.90;;;;;;5057966;28;20067;-85
2023/09/13 05:41:10;;;;;;;6.40;3.75;;;21.50;92.90;;;;;;5046133;28;20138;-85
2023/09/13 05:43:41;;;;;;;10.95;4.18;;;21.50;92.90;;;;;;5050535;28;20032;-85
2023/09/13 05:46:07;;;;;;;7.85;4.50;;;21.50;92.90;;;;;;5041912;28;20017;-85
2023/09/13 05:48:33;;;;;;;8.00;4.45;;;21.50;92.90;;;;;;5059124;28;20033;-86
2023/09/13 05:50:59;;;;;;;7.22;4.13;;;21.50;92.90;;;;;;5052012;28;20480;-85
2023/09/13 05:53:25;;;;;;;7.00;4.20;;;21.50;92.90;;;;;;5062277;28;20032;-85
2023/09/13 05:55:51;;;;;;;5.60;4.13;;;21.50;92.90;;;;;;5051399;28;20760;-86
2023/09/13 05:58:17;;;;;;;11.98;4.13;;;21.50;92.90;;;;;;5047252;28;20025;-86
2023/09/13 06:00:45;;;;;;;7.68;4.60;;;21.50;92.90;;;;;;5053614;28;20077;-85
2023/09/13 06:03:11;;;;;;;9.68;4.40;;;21.50;92.90;;;;;;5055712;28;20136;-85
2023/09/13 06:05:36;;;;;;;8.18;4.72;;;21.50;92.90;;;;;;5039114;28;20100;-85
2023/09/13 06:08:02;;;;;;;8.60;4.80;;;21.50;92.90;;;;;;5036393;28;20024;-86
2023/09/13 06:10:28;;;;;;;5.85;4.00;;;21.50;92.90;;;;;;5026206;28;20117;-85
2023/09/13 06:12:54;;;;;;;9.20;4.57;;;21.50;92.90;;;;;;5042107;28;20025;-86
2023/09/13 06:15:19;;;;;;;8.13;4.28;;;21.50;92.90;;;;;;5049142;28;20029;-85
2023/09/13 06:17:45;;;;;;;6.25;4.45;;;21.50;92.90;;;;;;5049595;28;20095;-85
2023/09/13 06:20:11;;;;;;;7.05;3.78;;;21.50;92.90;;;;;;5050164;28;20021;-85
2023/09/13 06:22:37;;;;;;;5.35;3.92;;;21.50;92.90;;;;;;5042258;28;20478;-85
2023/09/13 06:25:03;;;;;;;11.23;4.57;;;21.50;93.00;;;;;;5046209;28;20037;-85
2023/09/13 06:27:29;;;;;;;8.32;4.63;;;21.50;92.90;;;;;;5040369;28;20021;-85
2023/09/13 06:29:55;;;;;;;8.40;3.85;;;21.50;93.00;;;;;;5044615;28;21267;-85
2023/09/13 06:32:20;;;;;;;8.85;4.47;;;21.50;93.00;;;;;;5038848;28;20068;-86
2023/09/13 06:34:46;;;;;;;8.80;4.22;;;21.50;93.00;;;;;;5044993;28;20037;-85
2023/09/13 06:37:13;;;;;;;7.22;4.10;;;21.50;93.00;;;;;;5047589;28;20032;-84
2023/09/13 06:39:38;;;;;;;8.18;4.50;;;21.50;93.00;;;;;;5043953;28;20029;-85
2023/09/13 06:42:05;;;;;;;6.25;4.00;;;21.50;92.90;;;;;;5042639;28;20052;-85
2023/09/13 06:44:30;;;;;;;10.20;4.13;;;21.50;93.00;;;;;;5047668;28;20113;-85
2023/09/13 06:46:56;;;;;;;4.45;3.83;;;21.50;93.00;;;;;;5041760;28;20113;-84
2023/09/13 06:49:24;;;;;;;8.73;4.88;;;21.50;93.00;;;;;;5047397;28;20129;-84
2023/09/13 06:51:51;;;;;;;8.15;4.10;;;21.50;93.00;;;;;;5041857;28;20105;-85
2023/09/13 06:54:18;;;;;;;7.72;3.92;;;21.50;93.00;;;;;;5048755;28;20033;-85
2023/09/13 06:56:44;;;;;;;8.50;3.75;;;21.50;93.00;;;;;;5035847;28;20231;-85
2023/09/13 06:59:12;;;;;;;4.63;4.10;;;21.50;93.00;;;;;;5040702;28;20470;-85
2023/09/13 07:01:38;;;;;;;5.78;4.18;;;21.50;93.00;;;;;;5049437;28;20032;-86
2023/09/13 07:04:04;;;;;;;5.25;3.65;;;21.50;93.00;;;;;;5042843;28;20363;-85
2023/09/13 07:06:30;;;;;;;7.18;4.47;;;21.50;93.10;;;;;;5016875;28;20033;-84
2023/09/13 07:08:56;;;;;;;9.48;4.45;;;21.50;93.10;;;;;;5028014;28;20026;-85
2023/09/13 07:11:23;;;;;;;9.70;3.92;;;21.50;93.10;;;;;;5036601;28;20049;-85
2023/09/13 07:13:48;;;;;;;10.90;4.18;;;21.50;93.10;;;;;;5030191;28;20456;-85
2023/09/13 07:16:14;;;;;;;8.02;4.53;;;21.70;93.20;;;;;;5010707;28;20025;-85
2023/09/13 07:18:40;;;;;;;6.85;4.57;;;21.50;93.10;;;;;;5022588;28;20040;-86
2023/09/13 07:21:05;;;;;;;6.13;3.95;;;21.50;93.10;;;;;;5033832;28;20025;-86
2023/09/13 07:23:31;;;;;;;6.57;4.45;;;21.50;93.10;;;;;;5029099;28;20029;-86
2023/09/13 07:25:57;;;;;;;5.13;3.78;;;21.50;93.10;;;;;;5028987;28;20065;-85
2023/09/13 07:28:22;;;;;;;11.48;4.57;;;21.50;93.20;;;;;;5025413;28;20352;-86
2023/09/13 07:30:48;;;;;;;7.30;4.50;;;21.50;93.20;;;;;;5032675;28;20032;-86
2023/09/13 07:33:14;;;;;;;14.43;4.32;;;21.50;93.20;;;;;;5028108;28;20382;-86
2023/09/13 07:35:40;;;;;;;5.97;3.72;;;21.50;93.20;;;;;;5027871;28;20024;-86
2023/09/13 07:38:05;;;;;;;17.17;4.25;;;21.50;93.20;;;;;;5045263;28;20071;-85
2023/09/13 07:40:31;;;;;;;9.50;3.85;;;21.50;93.20;;;;;;5043830;28;20026;-86
2023/09/13 07:42:58;;;;;;;12.35;4.40;;;21.50;93.20;;;;;;5043911;28;20017;-85
2023/09/13 07:45:24;;;;;;;8.68;4.25;;;21.50;93.20;;;;;;5044377;28;20033;-86
2023/09/13 07:47:50;;;;;;;10.18;4.35;;;21.50;93.20;;;;;;5046393;28;20035;-86
2023/09/13 07:50:29;;;;;;;7.03;4.35;;;21.50;93.20;;;;;;5033266;28;20037;-85
2023/09/13 07:52:54;;;;;;;6.45;4.03;;;21.50;93.30;;;;;;5044193;28;20174;-86
2023/09/13 07:55:20;;;;;;;8.30;3.95;;;21.50;93.30;;;;;;5027767;28;20104;-91
2023/09/13 07:57:45;;;;;;;6.03;4.00;;;21.50;93.30;;;;;;5038947;28;20032;-95
2023/09/13 08:00:13;;;;;;;7.25;4.20;;;21.50;93.30;;;;;;5052163;28;20071;-95
2023/09/13 08:02:41;;;;;;;9.35;3.83;;;21.50;93.40;;;;;;5021303;28;20029;-91
2023/09/13 08:05:07;;;;;;;7.57;3.85;;;21.40;93.40;;;;;;5059349;28;20067;-95
2023/09/13 08:07:33;;;;;;;8.75;4.80;;;21.40;93.50;;;;;;5076880;28;20013;-96
2023/09/13 08:09:59;;;;;;;5.50;3.88;;;21.40;93.60;;;;;;5061703;28;20036;-95
2023/09/13 08:12:24;;;;;;;8.38;4.43;;;21.40;93.60;;;;;;5058290;28;20481;-93
2023/09/13 08:14:50;;;;;;;8.00;4.65;;;21.40;93.70;;;;;;5079259;28;20158;-96
2023/09/13 08:17:15;;;;;;;7.75;4.85;;;21.40;93.90;;;;;;5066948;28;20020;-94
2023/09/13 08:19:41;;;;;;;12.80;5.18;;;21.40;94.00;;;;;;5056910;28;20096;-96
2023/09/13 08:22:10;;;;;;;6.40;4.13;;;21.30;94.00;;;;;;5082383;28;20035;-95
2023/09/13 08:24:35;;;;;;;7.43;4.20;;;21.30;94.10;;;;;;5065178;28;20029;-95
2023/09/13 08:27:01;;;;;;;9.85;4.65;;;21.40;94.20;;;;;;5064893;28;20029;-95
2023/09/13 08:29:31;;;;;;;5.70;3.78;;;21.40;94.20;;;;;;5061678;28;20108;-95
2023/09/13 08:31:57;;;;;;;8.40;4.68;;;21.40;94.20;;;;;;5047307;28;20044;-95
2023/09/13 08:34:25;;;;;;;7.50;4.72;;;21.30;94.20;;;;;;5083109;28;20500;-94
2023/09/13 08:43:56;;;;;;;7.82;4.47;;;21.30;94.60;;;;;;5015768;28;20102;-96
2023/09/13 08:47:01;;;;;;;5.60;4.13;;;21.30;94.50;;;;;;4999685;28;20419;-93
2023/09/13 08:49:41;;;;;;;9.10;4.50;;;21.30;94.40;;;;;;5004049;28;20084;-95
2023/09/13 08:52:14;;;;;;;10.60;4.43;;;21.40;94.50;;;;;;5021851;28;20033;-93
2023/09/13 08:55:00;;;;;;;8.38;4.60;;;21.30;94.60;;;;;;5015135;28;20042;-92
2023/09/13 08:57:33;;;;;;;7.72;4.82;;;21.30;94.60;;;;;;4998825;28;20030;-95
2023/09/13 09:10:01;;;;;;;14.43;5.47;;;21.30;94.90;;;;;;5000515;28;20322;-95
2023/09/13 09:12:55;;;;;;;10.73;5.93;;;21.30;95.20;;;;;;4980017;28;20034;-95
2023/09/13 09:15:25;;;;;;;14.45;6.05;;;21.40;95.60;;;;;;5006859;28;20099;-95
2023/09/13 09:17:59;;;;;;;11.98;6.32;;;21.30;96.00;;;;;;4999955;28;20050;-93
2023/09/13 09:21:02;;;;;;;11.02;6.90;;;21.30;96.40;;;;;;4997243;28;20045;-95
2023/09/13 09:23:29;;;;;;;9.00;5.78;;;21.30;96.60;;;;;;4982067;28;20022;-95
2023/09/13 09:25:55;;;;;;;11.25;5.88;;;21.30;96.70;;;;;;4993409;28;20030;-89
2023/09/13 09:28:22;;;;;;;11.82;6.47;;;21.80;97.10;;;;;;4993695;28;20058;-94
2023/09/13 09:30:51;;;;;;;10.50;5.65;;;21.30;97.20;;;;;;4986107;28;20023;-94
2023/09/13 09:33:29;;;;;;;11.73;6.53;;;21.30;97.40;;;;;;5019514;28;20461;-94
2023/09/13 09:35:57;;;;;;;11.90;6.65;;;21.30;97.50;;;;;;5058809;28;20058;-94
2023/09/13 09:38:24;;;;;;;10.23;6.68;;;21.30;97.60;;;;;;5052088;28;20048;-92
2023/09/13 09:40:50;;;;;;;14.25;6.78;;;21.30;97.80;;;;;;5044594;28;20099;-91
2023/09/13 09:43:16;;;;;;;9.10;6.20;;;21.30;97.90;;;;;;5051605;28;20071;-95
2023/09/13 09:45:42;;;;;;;11.27;6.28;;;21.30;98.00;;;;;;5030021;28;20025;-95
2023/09/13 09:48:08;;;;;;;10.98;6.50;;;21.30;98.00;;;;;;5047334;28;20541;-95
2023/09/13 09:50:34;;;;;;;8.95;6.18;;;21.30;98.10;;;;;;5034851;28;20543;-95
2023/09/13 09:53:08;;;;;;;11.30;7.47;;;21.30;98.20;;;;;;5032584;28;20112;-94
2023/09/13 09:55:37;;;;;;;17.38;6.38;;;21.30;98.30;;;;;;5044198;28;20060;-92
2023/09/13 09:58:03;;;;;;;18.58;6.78;;;21.30;98.30;;;;;;5026813;28;20025;-95
2023/09/13 10:00:29;;;;;;;12.82;6.70;;;21.30;98.40;;;;;;5041493;28;20111;-96
2023/09/13 10:02:55;;;;;;;15.10;6.45;;;21.30;98.50;;;;;;5025694;28;20300;-96
2023/09/13 10:05:21;;;;;;;11.98;7.28;;;21.30;98.50;;;;;;5061798;28;20036;-96
2023/09/13 10:07:54;;;;;;;10.55;5.78;;;21.30;98.50;;;;;;5044466;28;20124;-96
2023/09/13 10:10:35;;;;;;;8.25;6.10;;;21.30;98.50;;;;;;5045886;28;20055;-95
2023/09/13 10:13:03;;;;;;;11.45;5.82;;;21.30;98.40;;;;;;5048813;28;20059;-94
2023/09/13 10:15:58;;;;;;;10.98;6.45;;;21.30;98.50;;;;;;5050131;28;20065;-96
2023/09/13 10:18:26;;;;;;;11.43;6.65;;;21.20;98.50;;;;;;5063825;28;20035;-96
2023/09/13 10:20:57;;;;;;;11.30;5.55;;;21.20;98.30;;;;;;5052002;28;20119;-96
2023/09/13 10:23:33;;;;;;;10.05;6.15;;;21.20;98.30;;;;;;5071305;28;20020;-96
2023/09/13 10:26:02;;;;;;;11.40;6.63;;;21.30;98.50;;;;;;5061128;28;20436;-96
2023/09/13 10:28:32;;;;;;;10.43;6.95;;;21.20;98.80;;;;;;5050139;28;20036;-95
2023/09/13 10:30:59;;;;;;;;;;;21.30;98.80;;;;;;5046672;28;20024;-95
2023/09/13 10:33:26;;;;;;;9.52;6.25;;;21.30;98.80;;;;;;5064453;28;19908;-95
2023/09/13 10:35:57;;;;;;;7.40;5.78;;;21.30;98.80;;;;;;5051575;28;20047;-95
2023/09/13 10:38:31;;;;;;;9.57;6.60;;;21.20;98.70;;;;;;5054493;28;20021;-95
2023/09/13 10:41:17;;;;;;;9.80;6.35;;;21.30;98.80;;;;;;5055558;28;20397;-93
2023/09/13 10:43:43;;;;;;;11.70;6.70;;;21.30;98.60;;;;;;5056757;28;20025;-95
2023/09/13 10:46:10;;;;;;;12.70;6.55;;;21.30;98.50;;;;;;5050030;28;20024;-95
2023/09/13 10:48:38;;;;;;;11.23;6.57;;;21.30;98.50;;;;;;5050113;28;20059;-96
2023/09/13 10:51:05;;;;;;;10.55;6.32;;;21.30;98.60;;;;;;5071328;28;20029;-96
2023/09/13 10:57:01;;;;;;;8.98;5.68;;;21.30;98.50;;;;;;5077339;28;20063;-95
2023/09/13 10:59:27;;;;;;;7.97;4.88;;;21.30;98.40;;;;;;5041517;28;20101;-95
2023/09/13 11:01:53;;;;;;;8.27;5.28;;;21.30;98.30;;;;;;5077468;28;20457;-93
2023/09/13 11:04:24;;;;;;;7.05;5.30;;;21.30;98.20;;;;;;5061803;28;20063;-95
2023/09/13 11:06:53;;;;;;;9.55;5.93;;;21.30;98.20;;;;;;5051840;28;20041;-94
2023/09/13 11:09:30;;;;;;;9.13;5.43;;;21.30;98.20;;;;;;5042871;28;20025;-93
2023/09/13 11:11:57;;;;;;;9.73;5.20;;;21.30;98.30;;;;;;5053655;28;20081;-94
2023/09/13 11:14:30;;;;;;;8.30;5.07;;;21.30;98.30;;;;;;5033205;28;20021;-94
2023/09/13 11:17:09;;;;;;;9.40;5.15;;;21.30;98.20;;;;;;5043323;28;20116;-95
2023/09/13 11:19:35;;;;;;;8.53;5.30;;;21.30;98.10;;;;;;5032706;28;20053;-94
2023/09/13 11:22:02;;;;;;;10.27;5.13;;;21.30;98.10;;;;;;5044209;28;20028;-93
2023/09/13 11:24:43;;;;;;;10.55;6.38;;;21.30;97.90;;;;;;5043672;28;20059;-94
2023/09/13 11:27:18;;;;;;;7.90;5.88;;;21.30;97.70;;;;;;5041908;28;20039;-95
2023/09/13 11:29:46;;;;;;;8.60;5.63;;;21.30;98.10;;;;;;5056724;28;20030;-95
2023/09/13 11:32:25;;;;;;;10.27;6.03;;;21.30;97.80;;;;;;5040126;28;20021;-94
2023/09/13 11:34:58;;;;;;;8.48;5.53;;;21.30;97.60;;;;;;5029297;28;20037;-94
2023/09/13 11:37:25;;;;;;;9.60;5.35;;;21.30;97.60;;;;;;5051531;28;20029;-94
2023/09/13 11:40:10;;;;;;;8.10;4.30;;;21.30;97.60;;;;;;5052843;28;20093;-94
2023/09/13 11:42:36;;;;;;;8.13;5.03;;;21.30;97.30;;;;;;5033098;28;20029;-95
2023/09/13 11:45:09;;;;;;;7.22;3.22;;;21.30;97.20;;;;;;5049851;28;20039;-90
2023/09/13 11:47:35;;;;;;;6.72;3.50;;;21.30;97.30;;;;;;5033616;28;20071;-95
2023/09/13 11:50:00;;;;;;;6.32;3.40;;;21.30;97.20;;;;;;5028579;28;20028;-95
2023/09/13 11:52:26;;;;;;;6.47;3.53;;;21.30;97.00;;;;;;5050584;28;20017;-95
2023/09/13 11:54:58;;;;;;;5.00;3.42;;;21.30;96.80;;;;;;5028329;28;20037;-95
2023/09/13 11:57:43;;;;;;;8.15;3.28;;;21.20;96.70;;;;;;5049065;28;20021;-96
2023/09/13 12:00:14;;;;;;;6.15;3.38;;;21.20;96.70;;;;;;5029161;28;20068;-93
2023/09/13 12:02:43;;;;;;;6.85;3.67;;;21.30;96.70;;;;;;5030628;28;20022;-94
2023/09/13 12:05:10;;;;;;;12.75;4.10;;;21.20;96.70;;;;;;5053314;28;20037;-88
2023/09/13 12:07:36;;;;;;;9.70;4.07;;;21.20;96.80;;;;;;5051529;28;20039;-95
2023/09/13 12:10:03;;;;;;;6.10;4.15;;;21.30;96.80;;;;;;5066923;28;20028;-94
2023/09/13 12:12:43;;;;;;;6.53;4.25;;;21.20;96.80;;;;;;5070667;28;20020;-95
2023/09/13 12:15:15;;;;;;;6.57;4.35;;;21.30;96.80;;;;;;5065942;28;20454;-96
2023/09/13 12:17:41;;;;;;;6.35;4.20;;;21.20;96.70;;;;;;5067857;28;20033;-96
2023/09/13 12:20:10;;;;;;;8.95;4.53;;;21.20;96.60;;;;;;5050267;28;20028;-96
2023/09/13 12:22:40;;;;;;;6.57;4.53;;;21.20;96.60;;;;;;5064776;28;20017;-95
2023/09/13 12:25:10;;;;;;;6.20;4.05;;;21.20;96.50;;;;;;5048526;28;20029;-94
2023/09/13 12:27:36;;;;;;;10.23;4.53;;;21.20;96.60;;;;;;5050724;28;20165;-94
2023/09/13 12:30:15;;;;;;;7.75;3.90;;;21.20;96.50;;;;;;5054023;28;20064;-94
2023/09/13 12:32:41;;;;;;;8.90;4.40;;;21.20;96.50;;;;;;5053233;28;20105;-95
2023/09/13 12:35:07;;;;;;;7.45;3.72;;;21.20;96.50;;;;;;5050330;28;20476;-95
2023/09/13 12:37:32;;;;;;;7.03;3.88;;;21.20;96.40;;;;;;5053388;28;20033;-95
2023/09/13 12:39:58;;;;;;;9.23;4.50;;;21.20;96.40;;;;;;5054414;28;20762;-95
2023/09/13 12:42:24;;;;;;;5.53;3.88;;;21.20;96.40;;;;;;5056089;28;20029;-95
2023/09/13 12:44:49;;;;;;;8.82;4.30;;;21.20;96.30;;;;;;5048851;28;20039;-95
2023/09/13 12:47:18;;;;;;;5.65;3.30;;;21.20;96.30;;;;;;5067003;28;20021;-95
2023/09/13 12:49:44;;;;;;;7.25;3.28;;;21.20;96.60;;;;;;5049996;28;20021;-95
2023/09/13 12:52:09;;;;;;;7.43;3.38;;;21.30;96.30;;;;;;5047731;28;20378;-93
2023/09/13 12:54:36;;;;;;;14.55;4.78;;;21.30;96.30;;;;;;5062455;28;20040;-95
2023/09/13 12:57:03;;;;;;;5.63;3.05;;;21.30;96.30;;;;;;5051375;28;20028;-94
2023/09/13 12:59:44;;;;;;;4.47;3.00;;;21.30;96.20;;;;;;5065807;28;20485;-94
2023/09/13 13:02:14;;;;;;;5.72;3.67;;;21.30;96.20;;;;;;5050729;28;20048;-93
2023/09/13 13:04:43;;;;;;;6.00;3.38;;;21.20;96.10;;;;;;5066334;28;20029;-91
2023/09/13 13:07:09;;;;;;;5.30;3.50;;;21.30;96.20;;;;;;5033115;28;20096;-87
2023/09/13 13:09:35;;;;;;;6.63;3.80;;;21.30;96.20;;;;;;5048094;28;20130;-94
2023/09/13 13:12:01;;;;;;;6.07;3.28;;;21.30;96.20;;;;;;5031575;28;20482;-94
2023/09/13 13:14:27;;;;;;;6.30;3.47;;;21.30;96.10;;;;;;5042757;28;20083;-90
2023/09/13 13:20:08;;;;;;;7.32;3.75;;;21.30;95.90;;;;;;4917141;29;20529;-95
2023/09/13 13:22:34;;;;;;;3.17;2.58;;;21.20;95.90;;;;;;4915306;29;20077;-96
2023/09/13 13:25:00;;;;;;;5.65;3.38;;;21.30;96.00;;;;;;4912241;29;20086;-96
2023/09/13 13:27:28;;;;;;;4.38;3.03;;;21.30;96.00;;;;;;4912672;29;20220;-96
2023/09/13 13:29:54;;;;;;;5.75;2.95;;;21.30;96.00;;;;;;4912267;29;20043;-94
2023/09/13 13:32:20;;;;;;;3.92;2.55;;;21.20;96.00;;;;;;4911707;29;20145;-94
2023/09/13 13:34:47;;;;;;;6.47;2.88;;;21.30;96.00;;;;;;4913950;29;20481;-94
2023/09/13 13:37:13;;;;;;;4.57;2.80;;;21.30;95.90;;;;;;4906583;29;20482;-94
2023/09/13 13:39:39;;;;;;;5.68;2.70;;;21.20;95.90;;;;;;4898199;29;20040;-95
2023/09/13 13:42:05;;;;;;;5.95;3.30;;;21.20;95.90;;;;;;4912406;29;20075;-96
2023/09/13 13:44:34;;;;;;;4.45;2.92;;;21.20;95.80;;;;;;4911110;29;20035;-96
2023/09/13 13:47:00;;;;;;;4.43;3.33;;;21.20;95.80;;;;;;4913026;29;20028;-96
2023/09/13 13:49:25;;;;;;;4.88;2.78;;;21.20;95.80;;;;;;4912941;29;20045;-95
2023/09/13 13:51:51;;;;;;;7.40;2.90;;;21.20;95.70;;;;;;4948463;28;20500;-95
2023/09/13 13:54:18;;;;;;;7.72;3.33;;;21.20;95.70;;;;;;4949980;28;20035;-96
2023/09/13 13:56:44;;;;;;;6.03;3.40;;;21.20;95.80;;;;;;4977064;28;20044;-95
2023/09/13 13:59:13;;;;;;;6.53;3.53;;;21.20;96.10;;;;;;5030898;28;20062;-96
2023/09/13 14:01:39;;;;;;;5.32;3.00;;;21.20;96.00;;;;;;5024417;28;20103;-95
2023/09/13 14:04:05;;;;;;;8.57;2.88;;;21.20;96.00;;;;;;5050923;28;20052;-96
2023/09/13 14:06:30;;;;;;;4.40;2.70;;;21.20;95.90;;;;;;5049073;28;20020;-95
2023/09/13 14:08:56;;;;;;;12.52;2.92;;;21.20;95.90;;;;;;5049695;28;20020;-96
2023/09/13 14:11:22;;;;;;;10.45;2.80;;;21.20;95.80;;;;;;5061589;28;20017;-95
2023/09/13 14:13:47;;;;;;;6.18;2.50;;;21.20;95.60;;;;;;5046566;28;20029;-94
2023/09/13 14:16:13;;;;;;;3.47;2.58;;;21.20;95.50;;;;;;5049228;28;20033;-95
2023/09/13 14:18:39;;;;;;;4.03;2.67;;;21.20;95.50;;;;;;5065816;28;20021;-95
2023/09/13 14:21:04;;;;;;;6.22;2.85;;;21.20;95.40;;;;;;5063378;28;20028;-95
2023/09/13 14:23:30;;;;;;;5.85;2.30;;;21.20;95.50;;;;;;5063622;28;20016;-96
2023/09/13 14:25:55;;;;;;;10.30;2.88;;;21.20;95.50;;;;;;5047905;28;20089;-96
2023/09/13 14:28:21;;;;;;;5.15;3.42;;;21.20;95.40;;;;;;5067760;28;20021;-96
2023/09/13 14:30:48;;;;;;;7.28;3.80;;;21.20;95.40;;;;;;5057977;28;20079;-96
2023/09/13 14:33:16;;;;;;;7.30;4.05;;;21.20;95.70;;;;;;5070191;28;20023;-95
2023/09/13 14:35:42;;;;;;;6.65;3.88;;;21.20;96.00;;;;;;5051744;28;20036;-96
2023/09/13 14:38:10;;;;;;;8.75;4.35;;;21.20;96.30;;;;;;5060090;28;20070;-94
2023/09/13 14:40:35;;;;;;;9.25;4.22;;;21.20;96.50;;;;;;5078279;28;20028;-94
2023/09/13 14:43:01;;;;;;;6.30;4.22;;;21.20;96.70;;;;;;5054531;28;20060;-95
2023/09/13 14:45:27;;;;;;;6.15;4.65;;;21.20;96.80;;;;;;5072436;28;20017;-94
2023/09/13 14:47:52;;;;;;;7.82;4.18;;;21.20;97.00;;;;;;5073890;28;20092;-93
2023/09/13 14:50:18;;;;;;;8.38;4.50;;;21.20;97.20;;;;;;5076593;28;20032;-94
2023/09/13 14:52:44;;;;;;;7.57;4.80;;;21.20;97.30;;;;;;5075973;28;20016;-95
2023/09/13 14:55:15;;;;;;;6.07;4.63;;;21.20;97.40;;;;;;5057425;28;20060;-95
2023/09/13 14:57:42;;;;;;;8.88;4.75;;;21.10;97.30;;;;;;5073632;28;20453;-96
2023/09/13 15:00:08;;;;;;;8.32;4.70;;;21.20;97.30;;;;;;5056060;28;20052;-95
2023/09/13 15:02:37;;;;;;;6.03;4.13;;;21.20;97.20;;;;;;5056961;28;20062;-95
2023/09/13 15:05:05;;;;;;;8.60;3.92;;;21.20;97.20;;;;;;5056931;28;20021;-96
2023/09/13 15:07:36;;;;;;;5.28;3.47;;;21.20;97.30;;;;;;5035929;28;20040;-93
2023/09/13 15:10:03;;;;;;;7.30;4.10;;;21.20;97.30;;;;;;5038014;28;20021;-92
2023/09/13 15:12:32;;;;;;;5.97;3.90;;;21.20;97.20;;;;;;5038302;28;20040;-96
2023/09/13 16:10:16;;;;;;;6.18;3.70;;;21.10;97.30;;;;;;4886758;29;20056;-93
2023/09/13 16:12:43;;;;;;;5.82;3.97;;;21.10;97.40;;;;;;4899387;29;20029;-96
2023/09/13 16:15:10;;;;;;;7.72;4.28;;;21.10;97.40;;;;;;4902520;29;20049;-96
2023/09/13 16:17:35;;;;;;;5.53;3.63;;;21.10;97.40;;;;;;4892283;29;20025;-96
2023/09/13 16:20:03;;;;;;;7.97;4.03;;;21.10;97.50;;;;;;4893813;29;20048;-96
2023/09/13 16:22:29;;;;;;;10.05;4.10;;;21.10;97.50;;;;;;4899333;29;20431;-89
2023/09/13 16:24:55;;;;;;;4.60;3.53;;;21.10;97.60;;;;;;4877661;29;20056;-96
2023/09/13 16:27:20;;;;;;;5.78;4.03;;;21.10;97.70;;;;;;4889138;29;20073;-96
2023/09/13 16:29:46;;;;;;;5.07;3.72;;;21.10;97.70;;;;;;4912145;29;20044;-94
2023/09/13 16:32:12;;;;;;;12.98;3.60;;;21.10;98.10;;;;;;4890394;29;20107;-94
2023/09/13 16:34:39;;;;;;;9.00;3.80;;;21.10;97.80;;;;;;4882019;29;20044;-95
2023/09/13 16:37:04;;;;;;;7.40;4.05;;;21.10;97.90;;;;;;4882139;29;20021;-95
2023/09/13 16:39:30;;;;;;;8.68;4.10;;;21.10;97.90;;;;;;4907317;29;20104;-95
2023/09/13 16:41:55;;;;;;;5.93;3.63;;;21.10;97.90;;;;;;4946350;28;20519;-94
2023/09/13 16:44:21;;;;;;;8.45;4.00;;;21.10;98.00;;;;;;4969173;28;20030;-96
2023/09/13 16:46:47;;;;;;;3.88;2.72;;;21.10;97.90;;;;;;5023083;28;20033;-96
2023/09/13 16:49:13;;;;;;;6.03;3.60;;;21.10;97.90;;;;;;5034925;28;20075;-95
2023/09/13 16:51:42;;;;;;;6.32;3.65;;;21.10;98.00;;;;;;5030685;28;20033;-95
2023/09/13 16:54:09;;;;;;;3.83;3.42;;;21.10;98.00;;;;;;5045843;28;20032;-94
2023/09/13 16:56:34;;;;;;;5.90;4.30;;;21.10;98.10;;;;;;5044958;28;20022;-95
2023/09/13 16:59:00;;;;;;;8.05;3.92;;;21.10;98.10;;;;;;5045997;28;20447;-95
2023/09/13 17:01:29;;;;;;;12.75;3.78;;;21.10;98.10;;;;;;5029782;28;20028;-95
2023/09/13 17:04:05;;;;;;;5.68;3.17;;;21.00;98.10;;;;;;5044269;28;20545;-91
2023/09/13 17:06:34;;;;;;;8.18;3.13;;;21.00;98.10;;;;;;5054068;28;20052;-94
2023/09/13 17:09:01;;;;;;;8.48;3.65;;;21.10;98.10;;;;;;5040497;28;20017;-96